createdAt,value
2019-01-28T00:00:23.952Z,53.77
2019-01-28T00:09:42.027Z,48.77
2019-01-28T00:14:57.027Z,51.37
2019-01-28T00:18:08.974Z,51.60
2019-01-28T00:20:40.173Z,46.07
2019-01-28T00:26:53.309Z,52.33
2019-01-28T00:29:26.460Z,54.07
2019-01-28T00:32:11.187Z,46.90
2019-01-28T00:34:54.736Z,50.00
2019-01-28T00:37:37.681Z,40.33
2019-01-28T00:40:21.892Z,55.23
2019-01-28T00:43:04.806Z,51.53
2019-01-28T00:48:58.492Z,49.50
2019-01-28T00:51:41.866Z,52.13
2019-01-28T00:54:23.244Z,47.03
2019-01-28T00:57:07.046Z,49.60
2019-01-28T00:59:49.415Z,44.40
2019-01-28T01:02:30.538Z,52.30
2019-01-28T01:05:01.528Z,45.07
2019-01-28T01:07:50.390Z,44.63
2019-01-28T01:10:32.116Z,48.93
2019-01-28T01:13:01.930Z,49.23
2019-01-28T01:15:33.087Z,47.27
2019-01-28T01:18:21.995Z,45.53
2019-01-28T01:24:14.981Z,45.57
2019-01-28T01:27:03.733Z,50.77
2019-01-28T01:29:47.133Z,51.23
2019-01-28T01:32:29.757Z,43.50
2019-01-28T01:35:11.554Z,46.03
2019-01-28T01:37:57.409Z,47.13
2019-01-28T01:40:41.348Z,47.43
2019-01-28T01:43:24.151Z,47.90
2019-01-28T01:46:07.708Z,49.60
2019-01-28T01:48:51.799Z,49.93
2019-01-28T01:51:33.177Z,48.70
2019-01-28T01:54:18.440Z,48.23
2019-01-28T01:56:59.403Z,50.87
2019-01-28T02:00:00.052Z,53.80
2019-01-28T02:02:43.313Z,49.33
2019-01-28T02:05:26.858Z,53.97
2019-01-28T02:11:13.551Z,57.30
2019-01-28T02:16:53.673Z,57.27
2019-01-28T02:19:39.462Z,46.30
2019-01-28T02:22:22.720Z,50.63
2019-01-28T02:25:21.925Z,54.83
2019-01-28T02:27:57.473Z,45.63
2019-01-28T02:30:44.486Z,51.30
2019-01-28T02:33:30.937Z,50.37
2019-01-28T02:36:19.043Z,48.73
2019-01-28T02:39:24.608Z,50.20
2019-01-28T02:41:50.321Z,51.53
2019-01-28T02:44:36.364Z,50.97
2019-01-28T02:49:54.815Z,54.47
2019-01-28T02:52:37.352Z,47.57
2019-01-28T02:55:20.160Z,57.23
2019-01-28T02:58:01.057Z,47.27
2019-01-28T03:00:49.958Z,52.00
2019-01-28T03:03:31.320Z,56.13
2019-01-28T03:06:12.753Z,46.20
2019-01-28T03:08:53.960Z,55.70
2019-01-28T03:11:35.714Z,54.60
2019-01-28T03:14:15.379Z,48.63
2019-01-28T03:17:24.131Z,53.67
2019-01-28T03:20:04.253Z,55.83
2019-01-28T03:22:55.112Z,55.13
2019-01-28T03:25:36.678Z,49.97
2019-01-28T03:28:18.155Z,57.13
2019-01-28T03:31:05.049Z,51.07
2019-01-28T03:33:45.169Z,55.53
2019-01-28T03:39:28.655Z,58.57
2019-01-28T03:42:15.030Z,56.60
2019-01-28T03:44:57.739Z,49.00
2019-01-28T03:47:39.488Z,50.93
2019-01-28T03:50:25.102Z,51.93
2019-01-28T03:53:09.921Z,58.33
2019-01-28T03:55:54.310Z,49.33
2019-01-28T03:58:38.975Z,54.83
2019-01-28T04:02:42.262Z,53.70
2019-01-28T04:04:10.961Z,55.47
2019-01-28T04:06:58.701Z,57.40
2019-01-28T04:12:23.167Z,52.30
2019-01-28T04:15:06.260Z,51.53
2019-01-28T04:17:48.356Z,55.13
2019-01-28T04:20:30.760Z,57.20
2019-01-28T04:23:11.958Z,61.30
2019-01-28T04:25:53.044Z,50.03
2019-01-28T04:28:53.019Z,53.57
2019-01-28T04:31:23.237Z,52.63
2019-01-28T04:34:07.261Z,57.47
2019-01-28T04:36:59.710Z,52.63
2019-01-28T04:42:59.640Z,53.33
2019-01-28T04:45:29.694Z,57.90
2019-01-28T04:51:14.889Z,56.50
2019-01-28T04:54:12.939Z,55.93
2019-01-28T04:56:45.299Z,55.97
2019-01-28T04:59:36.632Z,54.97
2019-01-28T05:02:21.305Z,52.87
2019-01-28T05:07:55.970Z,51.20
2019-01-28T05:10:41.173Z,57.80
2019-01-28T05:13:32.850Z,63.03
2019-01-28T05:19:43.120Z,55.00
2019-01-28T05:25:16.066Z,57.80
2019-01-28T05:30:46.505Z,55.93
2019-01-28T05:36:35.089Z,57.50
2019-01-28T05:39:22.211Z,59.43
2019-01-28T05:44:59.946Z,61.87
2019-01-28T05:47:53.478Z,58.10
2019-01-28T05:50:26.046Z,60.87
2019-01-28T05:53:07.353Z,58.23
2019-01-28T05:55:49.791Z,60.93
2019-01-28T05:58:31.086Z,52.47
2019-01-28T06:01:15.653Z,54.47
2019-01-28T06:03:59.526Z,61.87
2019-01-28T06:06:40.618Z,56.73
2019-01-28T06:09:20.554Z,59.23
2019-01-28T06:12:39.697Z,52.20
2019-01-28T06:14:52.603Z,65.93
2019-01-28T06:17:39.065Z,54.90
2019-01-28T06:20:23.173Z,64.53
2019-01-28T06:23:05.681Z,61.73
2019-01-28T06:25:47.547Z,65.43
2019-01-28T06:28:28.819Z,59.10
2019-01-28T06:31:12.926Z,57.67
2019-01-28T06:34:08.437Z,50.33
2019-01-28T06:36:39.478Z,60.43
2019-01-28T06:39:20.919Z,61.60
2019-01-28T06:42:05.740Z,58.10
2019-01-28T06:44:54.399Z,62.33
2019-01-28T06:47:32.717Z,58.03
2019-01-28T06:50:14.210Z,66.97
2019-01-28T06:52:58.331Z,66.13
2019-01-28T06:55:41.170Z,63.60
2019-01-28T06:58:23.197Z,54.67
2019-01-28T07:04:15.140Z,59.37
2019-01-28T07:09:45.070Z,60.87
2019-01-28T07:12:26.131Z,63.33
2019-01-28T07:15:11.733Z,62.47
2019-01-28T07:17:55.058Z,66.13
2019-01-28T07:23:18.828Z,61.43
2019-01-28T07:26:00.337Z,67.43
2019-01-28T07:28:47.899Z,60.83
2019-01-28T07:34:10.854Z,65.83
2019-01-28T07:36:53.095Z,59.93
2019-01-28T07:39:34.356Z,69.97
2019-01-28T07:42:17.009Z,61.87
2019-01-28T07:45:08.716Z,70.83
2019-01-28T07:48:05.473Z,64.23
2019-01-28T07:53:40.699Z,63.80
2019-01-28T07:56:27.450Z,69.10
2019-01-28T07:59:11.458Z,67.43
2019-01-28T08:01:55.148Z,59.47
2019-01-28T08:04:36.905Z,60.13
2019-01-28T08:07:29.243Z,68.63
2019-01-28T08:10:11.211Z,68.73
2019-01-28T08:16:01.807Z,63.40
2019-01-28T08:28:13.474Z,62.87
2019-01-28T08:30:59.262Z,66.40
2019-01-28T08:33:43.560Z,67.53
2019-01-28T08:36:43.091Z,63.93
2019-01-28T08:39:34.078Z,69.53
2019-01-28T08:54:47.597Z,82.23
2019-01-28T09:11:47.168Z,76.13
2019-01-28T09:41:09.381Z,78.30
2019-01-28T10:01:46.506Z,98.03
2019-01-28T10:10:18.816Z,78.20
2019-01-28T20:32:05.498Z,120.23
2019-01-28T20:46:56.146Z,114.63
2019-01-28T21:03:28.715Z,127.93
